sensor_id;sensor_type;location;lat;lon;timestamp;temperature;humidity
70234;DHT22;75981;42.636;23.376;2024-01-30T00:01:39;3.47;52.28
70234;DHT22;75981;42.636;23.376;2024-01-30T00:04:05;3.48;52.13
70234;DHT22;75981;42.636;23.376;2024-01-30T00:06:30;3.53;51.93
70234;DHT22;75981;42.636;23.376;2024-01-30T00:08:56;3.68;51.46
70234;DHT22;75981;42.636;23.376;2024-01-30T00:11:22;3.75;51.20
70234;DHT22;75981;42.636;23.376;2024-01-30T00:16:27;3.79;50.97
70234;DHT22;75981;42.636;23.376;2024-01-30T00:18:55;3.68;51.28
70234;DHT22;75981;42.636;23.376;2024-01-30T00:21:30;3.74;51.06
70234;DHT22;75981;42.636;23.376;2024-01-30T00:23:56;3.78;50.90
70234;DHT22;75981;42.636;23.376;2024-01-30T00:26:21;3.60;50.88
70234;DHT22;75981;42.636;23.376;2024-01-30T00:28:47;3.66;50.91
70234;DHT22;75981;42.636;23.376;2024-01-30T00:31:12;3.71;50.72
70234;DHT22;75981;42.636;23.376;2024-01-30T00:33:38;3.77;50.71
70234;DHT22;75981;42.636;23.376;2024-01-30T00:36:05;3.70;50.51
70234;DHT22;75981;42.636;23.376;2024-01-30T00:38:31;3.58;50.74
70234;DHT22;75981;42.636;23.376;2024-01-30T00:40:57;3.61;50.52
70234;DHT22;75981;42.636;23.376;2024-01-30T00:43:22;3.68;50.45
70234;DHT22;75981;42.636;23.376;2024-01-30T00:45:49;3.66;50.48
70234;DHT22;75981;42.636;23.376;2024-01-30T00:48:17;3.61;50.41
70234;DHT22;75981;42.636;23.376;2024-01-30T00:50:42;3.60;50.52
70234;DHT22;75981;42.636;23.376;2024-01-30T00:53:08;3.56;50.75
70234;DHT22;75981;42.636;23.376;2024-01-30T00:55:33;3.58;50.52
70234;DHT22;75981;42.636;23.376;2024-01-30T00:57:59;3.50;50.75
70234;DHT22;75981;42.636;23.376;2024-01-30T01:00:24;3.46;50.99
70234;DHT22;75981;42.636;23.376;2024-01-30T01:02:54;3.40;51.00
70234;DHT22;75981;42.636;23.376;2024-01-30T01:05:19;2.95;52.31
70234;DHT22;75981;42.636;23.376;2024-01-30T01:07:45;3.09;52.07
70234;DHT22;75981;42.636;23.376;2024-01-30T01:10:12;2.72;52.37
70234;DHT22;75981;42.636;23.376;2024-01-30T01:12:39;3.15;51.39
70234;DHT22;75981;42.636;23.376;2024-01-30T01:15:05;3.18;51.13
70234;DHT22;75981;42.636;23.376;2024-01-30T01:17:31;3.29;50.97
70234;DHT22;75981;42.636;23.376;2024-01-30T01:19:57;3.30;50.56
70234;DHT22;75981;42.636;23.376;2024-01-30T01:22:22;3.12;50.85
70234;DHT22;75981;42.636;23.376;2024-01-30T01:24:48;2.77;51.65
70234;DHT22;75981;42.636;23.376;2024-01-30T01:27:13;3.29;51.03
70234;DHT22;75981;42.636;23.376;2024-01-30T01:29:39;3.27;50.82
70234;DHT22;75981;42.636;23.376;2024-01-30T01:32:04;3.09;51.39
70234;DHT22;75981;42.636;23.376;2024-01-30T01:34:30;3.02;51.46
70234;DHT22;75981;42.636;23.376;2024-01-30T01:36:56;2.96;51.28
70234;DHT22;75981;42.636;23.376;2024-01-30T01:39:22;3.12;51.36
70234;DHT22;75981;42.636;23.376;2024-01-30T01:41:49;2.82;51.79
70234;DHT22;75981;42.636;23.376;2024-01-30T01:44:14;2.92;51.95
70234;DHT22;75981;42.636;23.376;2024-01-30T01:46:40;3.06;51.69
70234;DHT22;75981;42.636;23.376;2024-01-30T01:49:06;2.93;51.81
70234;DHT22;75981;42.636;23.376;2024-01-30T01:51:34;3.10;51.78
70234;DHT22;75981;42.636;23.376;2024-01-30T01:54:04;3.08;51.64
70234;DHT22;75981;42.636;23.376;2024-01-30T01:56:31;3.09;51.79
70234;DHT22;75981;42.636;23.376;2024-01-30T01:59:00;3.02;52.02
70234;DHT22;75981;42.636;23.376;2024-01-30T02:01:27;3.15;51.68
70234;DHT22;75981;42.636;23.376;2024-01-30T02:03:53;3.15;51.64
70234;DHT22;75981;42.636;23.376;2024-01-30T02:06:19;3.18;51.60
70234;DHT22;75981;42.636;23.376;2024-01-30T02:08:45;3.31;51.43
70234;DHT22;75981;42.636;23.376;2024-01-30T02:11:10;3.30;51.01
70234;DHT22;75981;42.636;23.376;2024-01-30T02:13:36;3.33;50.90
70234;DHT22;75981;42.636;23.376;2024-01-30T02:16:02;3.33;50.91
70234;DHT22;75981;42.636;23.376;2024-01-30T02:18:28;3.33;50.81
70234;DHT22;75981;42.636;23.376;2024-01-30T02:20:54;3.36;50.89
70234;DHT22;75981;42.636;23.376;2024-01-30T02:23:25;3.40;50.81
70234;DHT22;75981;42.636;23.376;2024-01-30T02:25:51;3.33;50.66
70234;DHT22;75981;42.636;23.376;2024-01-30T02:28:18;3.10;51.19
70234;DHT22;75981;42.636;23.376;2024-01-30T02:30:44;3.00;51.53
70234;DHT22;75981;42.636;23.376;2024-01-30T02:33:10;3.00;51.42
70234;DHT22;75981;42.636;23.376;2024-01-30T02:35:35;3.00;51.74
70234;DHT22;75981;42.636;23.376;2024-01-30T02:38:01;3.29;50.99
70234;DHT22;75981;42.636;23.376;2024-01-30T02:40:26;3.46;50.39
70234;DHT22;75981;42.636;23.376;2024-01-30T02:42:52;3.50;50.01
70234;DHT22;75981;42.636;23.376;2024-01-30T02:45:17;3.29;50.52
70234;DHT22;75981;42.636;23.376;2024-01-30T02:47:43;2.99;50.96
70234;DHT22;75981;42.636;23.376;2024-01-30T02:50:08;3.09;51.07
70234;DHT22;75981;42.636;23.376;2024-01-30T02:52:34;3.27;50.60
70234;DHT22;75981;42.636;23.376;2024-01-30T02:55:00;3.33;50.42
70234;DHT22;75981;42.636;23.376;2024-01-30T02:57:25;3.44;50.05
70234;DHT22;75981;42.636;23.376;2024-01-30T02:59:51;3.47;49.91
70234;DHT22;75981;42.636;23.376;2024-01-30T03:02:16;3.54;49.82
70234;DHT22;75981;42.636;23.376;2024-01-30T03:04:42;3.53;49.58
70234;DHT22;75981;42.636;23.376;2024-01-30T03:07:08;3.54;49.43
70234;DHT22;75981;42.636;23.376;2024-01-30T03:09:34;3.54;49.64
70234;DHT22;75981;42.636;23.376;2024-01-30T03:11:59;3.57;49.42
70234;DHT22;75981;42.636;23.376;2024-01-30T03:14:26;3.60;49.30
70234;DHT22;75981;42.636;23.376;2024-01-30T03:16:51;3.54;49.61
70234;DHT22;75981;42.636;23.376;2024-01-30T03:19:17;3.53;49.26
70234;DHT22;75981;42.636;23.376;2024-01-30T03:21:42;3.56;49.76
70234;DHT22;75981;42.636;23.376;2024-01-30T03:24:07;3.46;50.25
70234;DHT22;75981;42.636;23.376;2024-01-30T03:26:34;3.53;49.94
70234;DHT22;75981;42.636;23.376;2024-01-30T03:28:59;3.48;49.85
70234;DHT22;75981;42.636;23.376;2024-01-30T03:31:25;3.36;49.82
70234;DHT22;75981;42.636;23.376;2024-01-30T03:33:50;3.33;50.07
70234;DHT22;75981;42.636;23.376;2024-01-30T03:36:16;3.39;50.02
70234;DHT22;75981;42.636;23.376;2024-01-30T03:38:41;3.30;49.70
70234;DHT22;75981;42.636;23.376;2024-01-30T03:41:08;3.06;50.59
70234;DHT22;75981;42.636;23.376;2024-01-30T03:43:34;3.29;49.96
70234;DHT22;75981;42.636;23.376;2024-01-30T03:45:59;3.33;49.68
70234;DHT22;75981;42.636;23.376;2024-01-30T03:48:26;3.36;49.60
70234;DHT22;75981;42.636;23.376;2024-01-30T03:50:51;3.36;49.49
70234;DHT22;75981;42.636;23.376;2024-01-30T03:53:17;3.40;49.27
70234;DHT22;75981;42.636;23.376;2024-01-30T03:55:43;3.23;50.04
70234;DHT22;75981;42.636;23.376;2024-01-30T03:58:08;3.41;49.76
70234;DHT22;75981;42.636;23.376;2024-01-30T04:00:33;3.34;49.72
70234;DHT22;75981;42.636;23.376;2024-01-30T04:02:59;3.34;49.57
70234;DHT22;75981;42.636;23.376;2024-01-30T04:05:24;3.34;49.01
70234;DHT22;75981;42.636;23.376;2024-01-30T04:07:50;3.43;48.66
70234;DHT22;75981;42.636;23.376;2024-01-30T04:10:16;3.48;48.22
70234;DHT22;75981;42.636;23.376;2024-01-30T04:12:41;3.41;48.12
70234;DHT22;75981;42.636;23.376;2024-01-30T04:15:07;3.39;47.72
70234;DHT22;75981;42.636;23.376;2024-01-30T04:17:33;3.20;47.80
70234;DHT22;75981;42.636;23.376;2024-01-30T04:19:58;2.96;48.91
70234;DHT22;75981;42.636;23.376;2024-01-30T04:22:24;3.24;48.49
70234;DHT22;75981;42.636;23.376;2024-01-30T04:24:49;3.22;48.81
70234;DHT22;75981;42.636;23.376;2024-01-30T04:27:15;3.10;49.07
70234;DHT22;75981;42.636;23.376;2024-01-30T04:29:40;3.02;49.36
70234;DHT22;75981;42.636;23.376;2024-01-30T04:32:06;3.10;49.10
70234;DHT22;75981;42.636;23.376;2024-01-30T04:34:31;2.82;48.52
70234;DHT22;75981;42.636;23.376;2024-01-30T04:36:59;2.91;47.39
70234;DHT22;75981;42.636;23.376;2024-01-30T04:39:24;2.96;47.40
70234;DHT22;75981;42.636;23.376;2024-01-30T04:41:50;2.85;47.88
70234;DHT22;75981;42.636;23.376;2024-01-30T04:44:20;2.92;47.58
70234;DHT22;75981;42.636;23.376;2024-01-30T04:46:45;2.99;47.58
70234;DHT22;75981;42.636;23.376;2024-01-30T04:49:11;2.54;48.03
70234;DHT22;75981;42.636;23.376;2024-01-30T04:51:37;1.78;49.39
70234;DHT22;75981;42.636;23.376;2024-01-30T04:54:02;1.31;50.56
70234;DHT22;75981;42.636;23.376;2024-01-30T04:56:28;2.11;49.61
70234;DHT22;75981;42.636;23.376;2024-01-30T04:58:53;2.24;49.14
70234;DHT22;75981;42.636;23.376;2024-01-30T05:01:19;2.21;49.41
70234;DHT22;75981;42.636;23.376;2024-01-30T05:03:44;2.37;49.54
70234;DHT22;75981;42.636;23.376;2024-01-30T05:06:10;2.45;49.10
70234;DHT22;75981;42.636;23.376;2024-01-30T05:08:35;2.61;48.80
70234;DHT22;75981;42.636;23.376;2024-01-30T05:11:06;2.61;48.85
70234;DHT22;75981;42.636;23.376;2024-01-30T05:13:32;2.54;48.75
70234;DHT22;75981;42.636;23.376;2024-01-30T05:15:58;2.41;49.53
70234;DHT22;75981;42.636;23.376;2024-01-30T05:18:23;2.42;49.88
70234;DHT22;75981;42.636;23.376;2024-01-30T05:20:51;2.66;49.89
70234;DHT22;75981;42.636;23.376;2024-01-30T05:23:17;2.77;49.63
70234;DHT22;75981;42.636;23.376;2024-01-30T05:25:42;2.79;49.61
70234;DHT22;75981;42.636;23.376;2024-01-30T05:28:08;2.89;49.38
70234;DHT22;75981;42.636;23.376;2024-01-30T05:30:33;2.88;49.55
70234;DHT22;75981;42.636;23.376;2024-01-30T05:32:58;2.75;49.87
70234;DHT22;75981;42.636;23.376;2024-01-30T05:35:24;2.58;50.58
70234;DHT22;75981;42.636;23.376;2024-01-30T05:37:49;2.75;50.34
70234;DHT22;75981;42.636;23.376;2024-01-30T05:40:15;2.65;50.21
70234;DHT22;75981;42.636;23.376;2024-01-30T05:42:41;2.71;50.11
70234;DHT22;75981;42.636;23.376;2024-01-30T05:45:06;2.66;50.52
70234;DHT22;75981;42.636;23.376;2024-01-30T05:47:33;2.66;50.33
70234;DHT22;75981;42.636;23.376;2024-01-30T05:49:58;1.52;52.32
70234;DHT22;75981;42.636;23.376;2024-01-30T05:52:24;1.76;51.80
70234;DHT22;75981;42.636;23.376;2024-01-30T05:54:50;1.85;51.50
70234;DHT22;75981;42.636;23.376;2024-01-30T05:57:16;1.92;51.28
70234;DHT22;75981;42.636;23.376;2024-01-30T05:59:41;1.54;51.27
70234;DHT22;75981;42.636;23.376;2024-01-30T06:02:06;1.41;51.97
70234;DHT22;75981;42.636;23.376;2024-01-30T06:04:32;1.13;52.65
70234;DHT22;75981;42.636;23.376;2024-01-30T06:06:57;4.58;75.75
70234;DHT22;75981;42.636;23.376;2024-01-30T06:09:23;4.84;62.01
70234;DHT22;75981;42.636;23.376;2024-01-30T06:11:48;4.37;59.42
70234;DHT22;75981;42.636;23.376;2024-01-30T06:14:14;5.29;63.61
70234;DHT22;75981;42.636;23.376;2024-01-30T06:16:42;5.93;64.34
70234;DHT22;75981;42.636;23.376;2024-01-30T06:19:07;5.22;54.41
70234;DHT22;75981;42.636;23.376;2024-01-30T06:21:33;3.23;48.39
70234;DHT22;75981;42.636;23.376;2024-01-30T06:24:02;2.50;49.81
70234;DHT22;75981;42.636;23.376;2024-01-30T06:26:27;2.17;50.19
70234;DHT22;75981;42.636;23.376;2024-01-30T06:28:53;2.64;49.67
70234;DHT22;75981;42.636;23.376;2024-01-30T06:31:18;2.33;50.34
70234;DHT22;75981;42.636;23.376;2024-01-30T06:33:47;1.58;50.78
70234;DHT22;75981;42.636;23.376;2024-01-30T06:36:15;1.55;50.75
70234;DHT22;75981;42.636;23.376;2024-01-30T06:38:41;1.16;51.86
70234;DHT22;75981;42.636;23.376;2024-01-30T06:41:06;1.45;50.68
70234;DHT22;75981;42.636;23.376;2024-01-30T06:43:35;1.72;50.52
70234;DHT22;75981;42.636;23.376;2024-01-30T06:46:00;1.89;49.67
70234;DHT22;75981;42.636;23.376;2024-01-30T06:48:25;1.62;49.89
70234;DHT22;75981;42.636;23.376;2024-01-30T06:50:53;1.51;50.21
70234;DHT22;75981;42.636;23.376;2024-01-30T06:53:19;1.55;49.95
70234;DHT22;75981;42.636;23.376;2024-01-30T06:55:47;1.03;50.63
70234;DHT22;75981;42.636;23.376;2024-01-30T06:58:12;1.20;50.86
70234;DHT22;75981;42.636;23.376;2024-01-30T07:00:38;1.83;49.88
70234;DHT22;75981;42.636;23.376;2024-01-30T07:03:04;1.14;51.33
70234;DHT22;75981;42.636;23.376;2024-01-30T07:05:29;1.37;50.81
70234;DHT22;75981;42.636;23.376;2024-01-30T07:07:55;1.82;49.77
70234;DHT22;75981;42.636;23.376;2024-01-30T07:10:20;1.81;49.24
70234;DHT22;75981;42.636;23.376;2024-01-30T07:12:46;1.99;48.72
70234;DHT22;75981;42.636;23.376;2024-01-30T07:15:11;2.45;47.54
70234;DHT22;75981;42.636;23.376;2024-01-30T07:17:39;3.68;44.82
70234;DHT22;75981;42.636;23.376;2024-01-30T07:20:05;3.64;44.67
70234;DHT22;75981;42.636;23.376;2024-01-30T07:22:31;4.09;43.71
70234;DHT22;75981;42.636;23.376;2024-01-30T07:24:56;4.57;43.43
70234;DHT22;75981;42.636;23.376;2024-01-30T07:27:22;4.56;43.33
70234;DHT22;75981;42.636;23.376;2024-01-30T07:29:47;4.85;42.32
70234;DHT22;75981;42.636;23.376;2024-01-30T07:32:13;4.56;42.42
70234;DHT22;75981;42.636;23.376;2024-01-30T07:34:38;4.13;44.04
70234;DHT22;75981;42.636;23.376;2024-01-30T07:37:04;4.78;42.55
70234;DHT22;75981;42.636;23.376;2024-01-30T07:39:34;4.74;43.26
70234;DHT22;75981;42.636;23.376;2024-01-30T07:42:00;3.64;44.16
70234;DHT22;75981;42.636;23.376;2024-01-30T07:44:25;5.04;42.20
70234;DHT22;75981;42.636;23.376;2024-01-30T07:46:51;3.70;44.61
70234;DHT22;75981;42.636;23.376;2024-01-30T07:49:16;5.15;42.65
70234;DHT22;75981;42.636;23.376;2024-01-30T07:51:42;4.64;42.28
70234;DHT22;75981;42.636;23.376;2024-01-30T07:54:08;4.68;42.67
70234;DHT22;75981;42.636;23.376;2024-01-30T07:56:46;3.99;43.77
70234;DHT22;75981;42.636;23.376;2024-01-30T07:59:11;3.84;43.99
70234;DHT22;75981;42.636;23.376;2024-01-30T08:01:37;4.43;43.42
70234;DHT22;75981;42.636;23.376;2024-01-30T08:04:03;5.08;42.55
70234;DHT22;75981;42.636;23.376;2024-01-30T08:06:28;4.60;43.42
70234;DHT22;75981;42.636;23.376;2024-01-30T08:08:57;5.50;41.87
70234;DHT22;75981;42.636;23.376;2024-01-30T08:11:26;4.56;43.37
70234;DHT22;75981;42.636;23.376;2024-01-30T08:13:54;4.85;42.30
70234;DHT22;75981;42.636;23.376;2024-01-30T08:16:19;4.76;43.26
70234;DHT22;75981;42.636;23.376;2024-01-30T08:18:44;6.21;40.96
70234;DHT22;75981;42.636;23.376;2024-01-30T08:21:10;5.89;40.66
70234;DHT22;75981;42.636;23.376;2024-01-30T08:23:35;5.60;40.93
70234;DHT22;75981;42.636;23.376;2024-01-30T08:26:01;6.66;39.18
70234;DHT22;75981;42.636;23.376;2024-01-30T08:28:26;6.36;38.66
70234;DHT22;75981;42.636;23.376;2024-01-30T08:30:52;6.46;38.94
70234;DHT22;75981;42.636;23.376;2024-01-30T08:33:17;7.24;37.85
70234;DHT22;75981;42.636;23.376;2024-01-30T08:35:43;8.23;37.00
70234;DHT22;75981;42.636;23.376;2024-01-30T08:38:08;8.71;35.87
70234;DHT22;75981;42.636;23.376;2024-01-30T08:40:34;9.05;35.45
70234;DHT22;75981;42.636;23.376;2024-01-30T08:43:00;7.71;36.86
70234;DHT22;75981;42.636;23.376;2024-01-30T08:45:25;7.93;37.44
70234;DHT22;75981;42.636;23.376;2024-01-30T08:47:50;8.36;36.76
70234;DHT22;75981;42.636;23.376;2024-01-30T08:50:16;9.02;35.77
70234;DHT22;75981;42.636;23.376;2024-01-30T08:52:41;9.61;34.31
70234;DHT22;75981;42.636;23.376;2024-01-30T08:55:07;9.64;34.50
70234;DHT22;75981;42.636;23.376;2024-01-30T08:57:32;9.23;35.33
70234;DHT22;75981;42.636;23.376;2024-01-30T08:59:58;8.41;35.50
70234;DHT22;75981;42.636;23.376;2024-01-30T09:02:23;4.92;41.12
70234;DHT22;75981;42.636;23.376;2024-01-30T09:04:49;4.98;42.09
70234;DHT22;75981;42.636;23.376;2024-01-30T09:07:14;5.34;40.62
70234;DHT22;75981;42.636;23.376;2024-01-30T09:09:40;5.25;40.15
70234;DHT22;75981;42.636;23.376;2024-01-30T09:12:06;6.48;39.59
70234;DHT22;75981;42.636;23.376;2024-01-30T09:14:34;6.84;38.09
70234;DHT22;75981;42.636;23.376;2024-01-30T09:17:00;6.52;38.62
70234;DHT22;75981;42.636;23.376;2024-01-30T09:19:25;7.47;37.49
70234;DHT22;75981;42.636;23.376;2024-01-30T09:21:51;7.07;38.02
70234;DHT22;75981;42.636;23.376;2024-01-30T09:24:16;8.10;36.63
70234;DHT22;75981;42.636;23.376;2024-01-30T09:26:41;8.72;35.99
70234;DHT22;75981;42.636;23.376;2024-01-30T09:29:07;7.78;37.03
70234;DHT22;75981;42.636;23.376;2024-01-30T09:31:32;7.68;36.28
70234;DHT22;75981;42.636;23.376;2024-01-30T09:33:58;9.08;35.78
70234;DHT22;75981;42.636;23.376;2024-01-30T09:36:23;9.70;34.29
70234;DHT22;75981;42.636;23.376;2024-01-30T09:38:49;9.67;34.04
70234;DHT22;75981;42.636;23.376;2024-01-30T09:41:15;9.95;33.65
70234;DHT22;75981;42.636;23.376;2024-01-30T09:43:41;9.60;33.78
70234;DHT22;75981;42.636;23.376;2024-01-30T09:46:14;8.22;35.13
70234;DHT22;75981;42.636;23.376;2024-01-30T09:48:41;9.12;35.15
70234;DHT22;75981;42.636;23.376;2024-01-30T09:51:09;7.99;36.02
70234;DHT22;75981;42.636;23.376;2024-01-30T09:53:36;8.48;35.61
70234;DHT22;75981;42.636;23.376;2024-01-30T09:56:02;8.48;35.54
70234;DHT22;75981;42.636;23.376;2024-01-30T09:58:28;7.72;36.15
70234;DHT22;75981;42.636;23.376;2024-01-30T10:00:53;7.90;35.72
70234;DHT22;75981;42.636;23.376;2024-01-30T10:03:19;7.18;36.67
70234;DHT22;75981;42.636;23.376;2024-01-30T10:05:50;7.10;37.23
70234;DHT22;75981;42.636;23.376;2024-01-30T10:08:17;7.30;37.01
70234;DHT22;75981;42.636;23.376;2024-01-30T10:10:46;7.34;37.46
70234;DHT22;75981;42.636;23.376;2024-01-30T10:13:11;6.29;40.62
70234;DHT22;75981;42.636;23.376;2024-01-30T10:15:37;6.11;41.33
70234;DHT22;75981;42.636;23.376;2024-01-30T10:18:04;7.32;38.45
70234;DHT22;75981;42.636;23.376;2024-01-30T10:20:32;6.90;38.49
70234;DHT22;75981;42.636;23.376;2024-01-30T10:22:57;6.66;39.65
70234;DHT22;75981;42.636;23.376;2024-01-30T10:25:23;6.66;39.81
70234;DHT22;75981;42.636;23.376;2024-01-30T10:27:55;7.07;39.25
70234;DHT22;75981;42.636;23.376;2024-01-30T10:30:25;6.97;39.37
70234;DHT22;75981;42.636;23.376;2024-01-30T10:32:50;6.82;39.86
70234;DHT22;75981;42.636;23.376;2024-01-30T10:35:16;6.57;40.15
70234;DHT22;75981;42.636;23.376;2024-01-30T10:37:47;4.92;42.42
70234;DHT22;75981;42.636;23.376;2024-01-30T10:40:14;5.65;42.19
70234;DHT22;75981;42.636;23.376;2024-01-30T10:42:44;5.98;41.97
70234;DHT22;75981;42.636;23.376;2024-01-30T10:45:11;6.17;41.72
70234;DHT22;75981;42.636;23.376;2024-01-30T10:47:49;6.18;41.25
70234;DHT22;75981;42.636;23.376;2024-01-30T10:50:15;5.94;41.58
70234;DHT22;75981;42.636;23.376;2024-01-30T10:52:41;6.03;41.70
70234;DHT22;75981;42.636;23.376;2024-01-30T10:55:07;5.55;42.61
70234;DHT22;75981;42.636;23.376;2024-01-30T10:57:37;5.45;42.99
70234;DHT22;75981;42.636;23.376;2024-01-30T11:00:05;5.89;42.58
70234;DHT22;75981;42.636;23.376;2024-01-30T11:02:43;5.71;42.02
70234;DHT22;75981;42.636;23.376;2024-01-30T11:05:09;6.01;41.78
70234;DHT22;75981;42.636;23.376;2024-01-30T11:07:35;5.83;41.84
70234;DHT22;75981;42.636;23.376;2024-01-30T11:10:04;5.52;42.32
70234;DHT22;75981;42.636;23.376;2024-01-30T11:12:32;5.50;42.77
70234;DHT22;75981;42.636;23.376;2024-01-30T11:17:45;5.93;41.87
70234;DHT22;75981;42.636;23.376;2024-01-30T11:20:12;6.00;41.10
70234;DHT22;75981;42.636;23.376;2024-01-30T11:22:44;5.77;41.72
70234;DHT22;75981;42.636;23.376;2024-01-30T11:25:17;6.55;40.51
70234;DHT22;75981;42.636;23.376;2024-01-30T11:27:43;7.65;38.64
70234;DHT22;75981;42.636;23.376;2024-01-30T11:30:10;8.44;37.90
70234;DHT22;75981;42.636;23.376;2024-01-30T11:32:36;8.10;37.12
70234;DHT22;75981;42.636;23.376;2024-01-30T11:35:05;7.76;37.98
70234;DHT22;75981;42.636;23.376;2024-01-30T11:37:31;6.94;39.43
70234;DHT22;75981;42.636;23.376;2024-01-30T11:39:58;6.84;40.60
70234;DHT22;75981;42.636;23.376;2024-01-30T11:42:24;6.87;40.46
70234;DHT22;75981;42.636;23.376;2024-01-30T11:44:52;5.57;41.44
70234;DHT22;75981;42.636;23.376;2024-01-30T11:47:18;5.86;42.50
70234;DHT22;75981;42.636;23.376;2024-01-30T11:49:43;7.56;39.81
70234;DHT22;75981;42.636;23.376;2024-01-30T11:52:09;7.99;38.35
70234;DHT22;75981;42.636;23.376;2024-01-30T11:54:35;7.59;38.89
70234;DHT22;75981;42.636;23.376;2024-01-30T11:57:01;7.00;40.45
70234;DHT22;75981;42.636;23.376;2024-01-30T11:59:26;6.07;40.96
70234;DHT22;75981;42.636;23.376;2024-01-30T12:01:52;6.22;41.82
70234;DHT22;75981;42.636;23.376;2024-01-30T12:04:17;7.13;39.63
70234;DHT22;75981;42.636;23.376;2024-01-30T12:06:51;8.40;38.16
70234;DHT22;75981;42.636;23.376;2024-01-30T12:09:16;9.60;36.19
70234;DHT22;75981;42.636;23.376;2024-01-30T12:11:56;10.19;34.94
70234;DHT22;75981;42.636;23.376;2024-01-30T12:14:22;10.53;34.42
70234;DHT22;75981;42.636;23.376;2024-01-30T12:16:48;10.43;33.98
70234;DHT22;75981;42.636;23.376;2024-01-30T12:19:24;8.61;36.33
70234;DHT22;75981;42.636;23.376;2024-01-30T12:21:56;9.27;35.99
70234;DHT22;75981;42.636;23.376;2024-01-30T12:24:27;9.58;34.98
70234;DHT22;75981;42.636;23.376;2024-01-30T12:26:57;9.82;35.13
70234;DHT22;75981;42.636;23.376;2024-01-30T12:29:22;9.82;34.67
70234;DHT22;75981;42.636;23.376;2024-01-30T12:31:54;8.85;35.89
70234;DHT22;75981;42.636;23.376;2024-01-30T12:34:20;8.96;36.49
70234;DHT22;75981;42.636;23.376;2024-01-30T12:36:47;9.62;35.68
70234;DHT22;75981;42.636;23.376;2024-01-30T12:39:14;9.06;36.17
70234;DHT22;75981;42.636;23.376;2024-01-30T12:41:40;9.20;36.08
70234;DHT22;75981;42.636;23.376;2024-01-30T12:44:06;9.03;36.34
70234;DHT22;75981;42.636;23.376;2024-01-30T12:46:34;9.19;36.02
70234;DHT22;75981;42.636;23.376;2024-01-30T12:48:59;8.92;36.43
70234;DHT22;75981;42.636;23.376;2024-01-30T12:51:25;9.69;35.39
70234;DHT22;75981;42.636;23.376;2024-01-30T12:53:54;9.80;35.03
70234;DHT22;75981;42.636;23.376;2024-01-30T12:56:19;9.70;34.62
70234;DHT22;75981;42.636;23.376;2024-01-30T12:58:45;9.39;34.91
70234;DHT22;75981;42.636;23.376;2024-01-30T13:01:10;9.48;34.89
70234;DHT22;75981;42.636;23.376;2024-01-30T13:03:36;10.35;34.09
70234;DHT22;75981;42.636;23.376;2024-01-30T13:06:02;10.77;33.16
70234;DHT22;75981;42.636;23.376;2024-01-30T13:08:28;10.50;33.38
70234;DHT22;75981;42.636;23.376;2024-01-30T13:10:53;10.64;33.65
70234;DHT22;75981;42.636;23.376;2024-01-30T13:13:19;10.96;33.16
70234;DHT22;75981;42.636;23.376;2024-01-30T13:15:44;11.45;32.80
70234;DHT22;75981;42.636;23.376;2024-01-30T13:18:12;10.85;32.87
70234;DHT22;75981;42.636;23.376;2024-01-30T13:20:38;10.50;33.59
70234;DHT22;75981;42.636;23.376;2024-01-30T13:23:03;10.26;33.98
70234;DHT22;75981;42.636;23.376;2024-01-30T13:25:29;10.16;34.45
70234;DHT22;75981;42.636;23.376;2024-01-30T13:27:54;10.50;34.42
70234;DHT22;75981;42.636;23.376;2024-01-30T13:30:20;9.90;34.57
70234;DHT22;75981;42.636;23.376;2024-01-30T13:32:45;9.32;35.28
70234;DHT22;75981;42.636;23.376;2024-01-30T13:35:16;8.55;35.75
70234;DHT22;75981;42.636;23.376;2024-01-30T13:37:43;8.73;36.16
70234;DHT22;75981;42.636;23.376;2024-01-30T13:40:08;8.26;36.98
70234;DHT22;75981;42.636;23.376;2024-01-30T13:42:34;8.17;36.96
70234;DHT22;75981;42.636;23.376;2024-01-30T13:44:59;8.86;36.47
70234;DHT22;75981;42.636;23.376;2024-01-30T13:47:25;9.02;36.05
70234;DHT22;75981;42.636;23.376;2024-01-30T13:49:51;8.23;36.78
70234;DHT22;75981;42.636;23.376;2024-01-30T13:52:18;7.55;38.68
70234;DHT22;75981;42.636;23.376;2024-01-30T13:54:44;7.36;39.99
70234;DHT22;75981;42.636;23.376;2024-01-30T13:57:09;7.62;39.55
70234;DHT22;75981;42.636;23.376;2024-01-30T13:59:35;7.36;40.37
70234;DHT22;75981;42.636;23.376;2024-01-30T14:02:00;7.18;40.83
70234;DHT22;75981;42.636;23.376;2024-01-30T14:04:26;7.28;40.59
70234;DHT22;75981;42.636;23.376;2024-01-30T14:06:51;6.94;41.15
70234;DHT22;75981;42.636;23.376;2024-01-30T14:09:17;6.56;41.60
70234;DHT22;75981;42.636;23.376;2024-01-30T14:11:42;7.08;41.11
70234;DHT22;75981;42.636;23.376;2024-01-30T14:14:08;6.82;41.67
70234;DHT22;75981;42.636;23.376;2024-01-30T14:16:34;6.84;41.38
70234;DHT22;75981;42.636;23.376;2024-01-30T14:18:59;6.71;41.58
70234;DHT22;75981;42.636;23.376;2024-01-30T14:21:25;6.15;42.60
70234;DHT22;75981;42.636;23.376;2024-01-30T14:23:50;6.92;41.60
70234;DHT22;75981;42.636;23.376;2024-01-30T14:26:18;6.42;42.61
70234;DHT22;75981;42.636;23.376;2024-01-30T14:28:44;6.00;43.03
70234;DHT22;75981;42.636;23.376;2024-01-30T14:31:11;6.21;43.02
70234;DHT22;75981;42.636;23.376;2024-01-30T14:33:36;6.15;42.82
70234;DHT22;75981;42.636;23.376;2024-01-30T14:36:02;5.81;43.48
70234;DHT22;75981;42.636;23.376;2024-01-30T14:38:27;5.84;43.61
70234;DHT22;75981;42.636;23.376;2024-01-30T14:40:53;5.96;43.22
70234;DHT22;75981;42.636;23.376;2024-01-30T14:43:19;5.78;43.33
70234;DHT22;75981;42.636;23.376;2024-01-30T14:45:44;5.40;43.66
70234;DHT22;75981;42.636;23.376;2024-01-30T14:48:12;5.63;43.29
70234;DHT22;75981;42.636;23.376;2024-01-30T14:50:38;5.60;44.09
70234;DHT22;75981;42.636;23.376;2024-01-30T14:53:06;5.42;44.14
70234;DHT22;75981;42.636;23.376;2024-01-30T14:55:32;5.09;44.56
70234;DHT22;75981;42.636;23.376;2024-01-30T14:57:57;5.12;44.95
70234;DHT22;75981;42.636;23.376;2024-01-30T15:00:24;5.22;44.50
70234;DHT22;75981;42.636;23.376;2024-01-30T15:02:50;5.73;43.60
70234;DHT22;75981;42.636;23.376;2024-01-30T15:05:18;5.46;43.84
70234;DHT22;75981;42.636;23.376;2024-01-30T15:07:43;5.91;43.47
70234;DHT22;75981;42.636;23.376;2024-01-30T15:10:09;6.04;43.06
70234;DHT22;75981;42.636;23.376;2024-01-30T15:12:35;5.90;43.42
70234;DHT22;75981;42.636;23.376;2024-01-30T15:15:00;5.94;42.95
70234;DHT22;75981;42.636;23.376;2024-01-30T15:17:26;5.71;43.77
70234;DHT22;75981;42.636;23.376;2024-01-30T15:19:51;6.01;43.26
70234;DHT22;75981;42.636;23.376;2024-01-30T15:22:17;6.04;42.99
70234;DHT22;75981;42.636;23.376;2024-01-30T15:24:42;6.01;43.10
70234;DHT22;75981;42.636;23.376;2024-01-30T15:27:08;5.96;43.11
70234;DHT22;75981;42.636;23.376;2024-01-30T15:29:33;5.73;43.83